createdAt,value
2023-03-29T00:04:55.412Z,10.10
2023-03-29T00:10:04.827Z,7.40
2023-03-29T00:15:09.240Z,10.80
2023-03-29T00:20:14.680Z,8.10
2023-03-29T00:25:18.241Z,12.00
2023-03-29T00:30:24.295Z,8.70
2023-03-29T00:35:29.360Z,9.20
2023-03-29T00:40:35.850Z,11.00
2023-03-29T00:45:41.071Z,20.80
2023-03-29T00:50:56.383Z,34.40
2023-03-29T00:56:21.847Z,28.60
2023-03-29T01:01:55.428Z,19.20
2023-03-29T01:07:18.849Z,12.50
2023-03-29T01:12:33.781Z,33.20
2023-03-29T01:17:40.364Z,20.50
2023-03-29T01:23:08.283Z,16.60
2023-03-29T01:28:32.300Z,17.80
2023-03-29T01:33:49.732Z,11.70
2023-03-29T01:38:58.391Z,18.10
2023-03-29T01:44:35.437Z,12.40
2023-03-29T01:49:48.042Z,16.70
2023-03-29T01:55:14.046Z,15.60
2023-03-29T02:00:23.286Z,15.10
2023-03-29T02:05:32.959Z,18.40
2023-03-29T02:10:38.558Z,13.00
2023-03-29T02:15:45.939Z,14.70
2023-03-29T02:20:51.876Z,10.20
2023-03-29T02:25:57.454Z,12.50
2023-03-29T02:31:34.974Z,10.50
2023-03-29T02:36:55.422Z,12.90
2023-03-29T02:42:01.898Z,8.60
2023-03-29T02:47:17.988Z,10.10
2023-03-29T02:52:42.536Z,8.50
2023-03-29T02:57:47.710Z,16.00
2023-03-29T03:02:52.730Z,7.80
2023-03-29T03:07:59.036Z,15.00
2023-03-29T03:13:04.720Z,17.40
2023-03-29T03:18:09.997Z,8.80
2023-03-29T03:23:14.206Z,12.50
2023-03-29T03:28:19.223Z,15.40
2023-03-29T03:33:23.143Z,10.00
2023-03-29T03:38:27.911Z,14.00
2023-03-29T03:43:31.750Z,13.70
2023-03-29T03:48:38.709Z,15.60
2023-03-29T03:53:42.793Z,92.30
2023-03-29T03:58:49.145Z,30.20
2023-03-29T04:03:54.390Z,37.30
2023-03-29T04:09:00.241Z,37.00
2023-03-29T04:14:05.308Z,22.50
2023-03-29T04:19:09.736Z,17.90
2023-03-29T04:24:15.261Z,16.50
2023-03-29T04:29:19.605Z,27.70
2023-03-29T04:34:24.482Z,19.80
2023-03-29T04:39:34.999Z,22.80
2023-03-29T04:44:40.997Z,28.20
2023-03-29T04:49:45.396Z,27.30
2023-03-29T04:54:49.947Z,31.30
2023-03-29T04:59:54.232Z,30.70
2023-03-29T05:04:59.351Z,35.20
2023-03-29T05:10:04.613Z,35.40
2023-03-29T05:15:10.231Z,38.50
2023-03-29T05:20:14.973Z,27.70
2023-03-29T05:25:19.989Z,30.60
2023-03-29T05:30:24.687Z,27.10
2023-03-29T05:35:30.021Z,26.50
2023-03-29T05:40:34.880Z,25.40
2023-03-29T05:45:39.702Z,23.80
2023-03-29T05:50:49.927Z,24.00
2023-03-29T05:55:54.998Z,22.00
2023-03-29T06:01:01.567Z,20.50
2023-03-29T06:06:05.889Z,14.60
2023-03-29T06:11:11.503Z,23.20
2023-03-29T06:16:15.442Z,18.70
2023-03-29T06:21:19.927Z,21.30
2023-03-29T06:26:23.440Z,17.10
2023-03-29T06:31:27.035Z,17.70
2023-03-29T06:36:31.923Z,12.50
2023-03-29T06:41:35.568Z,16.50
2023-03-29T06:46:39.598Z,10.60
2023-03-29T06:51:43.543Z,8.20
2023-03-29T06:56:47.757Z,8.60
2023-03-29T07:01:53.007Z,10.60
2023-03-29T07:07:06.951Z,11.90
2023-03-29T07:12:11.428Z,8.50
2023-03-29T07:17:17.453Z,13.80
2023-03-29T07:22:24.798Z,11.90
2023-03-29T07:27:28.866Z,9.40
2023-03-29T07:32:34.291Z,9.70
2023-03-29T07:37:38.454Z,9.00
2023-03-29T07:42:47.025Z,9.90
2023-03-29T07:47:55.948Z,8.20
2023-03-29T07:53:01.107Z,7.50
2023-03-29T07:58:04.791Z,8.80
2023-03-29T08:03:12.896Z,9.20
2023-03-29T08:08:16.647Z,7.10
2023-03-29T08:13:19.951Z,6.00
2023-03-29T08:18:24.305Z,5.60
2023-03-29T08:23:28.338Z,5.40
2023-03-29T08:28:32.445Z,6.40
2023-03-29T08:33:36.905Z,8.50
2023-03-29T08:38:41.011Z,6.90
2023-03-29T08:43:53.217Z,8.50
2023-03-29T08:49:03.025Z,7.00
2023-03-29T08:54:12.932Z,5.40
2023-03-29T08:59:32.984Z,3.10
2023-03-29T09:04:40.042Z,2.70
2023-03-29T09:09:47.782Z,3.40
2023-03-29T09:14:52.837Z,3.40
2023-03-29T09:20:28.180Z,1.10
2023-03-29T09:25:54.388Z,4.90
2023-03-29T09:31:14.792Z,3.00
2023-03-29T09:36:53.137Z,2.90
2023-03-29T09:42:08.314Z,3.80
2023-03-29T09:47:24.048Z,3.90
2023-03-29T09:52:28.590Z,3.10
2023-03-29T09:57:32.992Z,4.60
2023-03-29T10:02:37.031Z,2.70
2023-03-29T10:07:46.045Z,2.50
2023-03-29T10:12:52.196Z,1.90
2023-03-29T10:18:07.188Z,4.20
2023-03-29T10:23:19.923Z,4.40
2023-03-29T10:28:27.137Z,2.10
2023-03-29T10:33:35.070Z,1.70
2023-03-29T10:38:40.310Z,1.70
2023-03-29T10:43:47.868Z,1.70
2023-03-29T10:49:07.031Z,1.70
2023-03-29T10:54:15.681Z,2.50
2023-03-29T10:59:41.289Z,2.40
2023-03-29T11:04:53.331Z,2.70
2023-03-29T11:10:27.982Z,2.80
2023-03-29T11:16:03.200Z,1.00
2023-03-29T11:21:14.511Z,3.40
2023-03-29T11:26:27.672Z,2.10
2023-03-29T11:32:10.231Z,4.50
2023-03-29T11:37:40.972Z,2.60
2023-03-29T11:42:49.008Z,2.90
2023-03-29T11:47:54.725Z,3.40
2023-03-29T11:53:05.650Z,2.70
2023-03-29T11:58:23.667Z,2.50
2023-03-29T12:04:05.915Z,9.60
2023-03-29T12:09:25.759Z,1.30
2023-03-29T12:15:02.375Z,4.00
2023-03-29T12:20:29.815Z,3.80
2023-03-29T12:26:01.214Z,2.50
2023-03-29T12:31:21.267Z,2.90
2023-03-29T12:37:07.212Z,4.60
2023-03-29T12:42:20.078Z,3.90
2023-03-29T12:47:28.184Z,1.60
2023-03-29T12:52:36.525Z,3.00
2023-03-29T12:57:45.557Z,3.00
2023-03-29T13:03:04.947Z,2.10
2023-03-29T13:08:22.940Z,3.80
2023-03-29T13:13:38.896Z,2.30
2023-03-29T13:19:03.434Z,1.90
2023-03-29T13:24:22.433Z,3.60
2023-03-29T13:29:54.023Z,2.50
2023-03-29T13:35:16.518Z,2.10
2023-03-29T13:40:47.057Z,3.20
2023-03-29T13:45:59.993Z,2.30
2023-03-29T13:51:27.719Z,2.50
2023-03-29T13:56:52.872Z,3.20
2023-03-29T14:02:00.948Z,3.60
2023-03-29T14:07:10.140Z,3.30
2023-03-29T14:12:16.176Z,2.40
2023-03-29T14:17:24.083Z,3.40
2023-03-29T14:22:34.429Z,4.60
2023-03-29T14:27:38.220Z,4.00
2023-03-29T14:32:41.937Z,1.50
2023-03-29T14:37:46.860Z,2.20
2023-03-29T14:42:51.656Z,2.40
2023-03-29T14:47:55.945Z,4.10
2023-03-29T14:53:01.015Z,5.90
2023-03-29T14:58:16.804Z,5.50
2023-03-29T15:03:27.889Z,5.20
2023-03-29T15:08:38.228Z,3.30
2023-03-29T15:13:45.385Z,6.40
2023-03-29T15:18:53.570Z,3.10
2023-03-29T15:24:00.983Z,4.90
2023-03-29T15:29:23.842Z,4.30
2023-03-29T15:34:30.098Z,4.90
2023-03-29T15:39:34.000Z,5.10
2023-03-29T15:44:39.701Z,3.20
2023-03-29T15:49:43.659Z,3.80
2023-03-29T15:54:47.867Z,4.30
2023-03-29T15:59:52.154Z,5.00
2023-03-29T16:04:56.069Z,6.70
2023-03-29T16:09:59.698Z,3.40
2023-03-29T16:15:19.190Z,3.90
2023-03-29T16:20:22.642Z,3.70
2023-03-29T16:25:28.214Z,7.80
2023-03-29T16:30:33.107Z,4.10
2023-03-29T16:35:40.884Z,2.50
2023-03-29T16:40:45.778Z,4.10
2023-03-29T16:45:49.950Z,2.80
2023-03-29T16:50:53.442Z,5.80
2023-03-29T16:56:05.970Z,5.80
2023-03-29T17:01:13.676Z,7.00
2023-03-29T17:11:24.387Z,12.80
2023-03-29T17:16:29.595Z,4.60
2023-03-29T17:21:34.251Z,4.70
2023-03-29T17:26:38.545Z,14.30
2023-03-29T17:31:48.115Z,6.60
2023-03-29T17:36:53.915Z,6.20
2023-03-29T17:41:57.572Z,5.60
2023-03-29T17:47:01.984Z,7.10
2023-03-29T17:52:07.048Z,12.10
2023-03-29T17:57:11.904Z,7.40
2023-03-29T18:02:22.285Z,8.50
2023-03-29T18:07:26.036Z,17.50
2023-03-29T18:12:30.555Z,18.50
2023-03-29T18:17:37.441Z,18.60
2023-03-29T18:22:42.729Z,10.70
2023-03-29T18:27:47.285Z,14.00
2023-03-29T18:32:53.487Z,15.70
2023-03-29T18:37:59.616Z,25.80
2023-03-29T18:43:03.871Z,22.80
2023-03-29T18:48:08.431Z,20.30
2023-03-29T18:53:15.869Z,15.60
2023-03-29T19:03:29.534Z,14.40
2023-03-29T19:08:37.330Z,15.00
2023-03-29T19:13:47.176Z,11.90
2023-03-29T19:18:52.618Z,13.70
2023-03-29T19:23:56.403Z,23.60
2023-03-29T19:29:02.489Z,20.00
2023-03-29T19:34:11.879Z,15.20
2023-03-29T19:39:18.998Z,15.10
2023-03-29T19:44:24.910Z,13.70
2023-03-29T19:49:29.850Z,19.40
2023-03-29T19:54:34.824Z,19.50
2023-03-29T19:59:41.231Z,14.30
2023-03-29T20:04:46.908Z,14.10
2023-03-29T20:09:52.614Z,11.30
2023-03-29T20:14:56.367Z,14.20
2023-03-29T20:20:01.137Z,13.10
2023-03-29T20:25:05.862Z,9.70
2023-03-29T20:30:11.421Z,15.60
2023-03-29T20:35:16.016Z,17.30
2023-03-29T20:40:21.240Z,17.70
2023-03-29T20:45:26.275Z,14.40
2023-03-29T20:50:30.762Z,15.10
2023-03-29T20:55:35.482Z,18.80
2023-03-29T21:00:40.940Z,13.10
2023-03-29T21:05:45.656Z,18.70
2023-03-29T21:10:49.581Z,15.60
2023-03-29T21:15:54.241Z,20.60
2023-03-29T21:20:58.268Z,22.40
2023-03-29T21:26:03.510Z,17.10
2023-03-29T21:31:08.499Z,19.80
2023-03-29T21:36:13.183Z,24.20
2023-03-29T21:41:18.763Z,12.60
2023-03-29T21:46:25.130Z,18.90
2023-03-29T21:51:29.188Z,19.10
2023-03-29T21:56:33.530Z,20.50
2023-03-29T22:01:38.598Z,19.30
2023-03-29T22:06:43.662Z,21.60
2023-03-29T22:11:49.140Z,19.30
2023-03-29T22:16:53.636Z,20.40
2023-03-29T22:22:02.122Z,15.10
2023-03-29T22:27:07.015Z,16.90
2023-03-29T22:32:11.530Z,18.50
2023-03-29T22:37:15.584Z,19.60
2023-03-29T22:48:09.158Z,23.50
2023-03-29T22:53:14.054Z,19.00
2023-03-29T23:03:54.157Z,20.20
2023-03-29T23:08:58.515Z,18.30
2023-03-29T23:14:06.461Z,14.40
2023-03-29T23:19:10.927Z,15.10
2023-03-29T23:24:19.252Z,17.30
2023-03-29T23:29:26.724Z,17.90
2023-03-29T23:34:31.056Z,19.10
2023-03-29T23:39:35.176Z,21.50
2023-03-29T23:44:40.308Z,13.20
2023-03-29T23:49:45.778Z,13.10
2023-03-29T23:54:51.990Z,13.50
